KLIC/LIC METAR and TAF weather

Enter ICAO airport designator
Station Type Date Time Source
KLIC METAR 2022/11/30 16:55 UTC NOAA

KLIC 301655Z AUTO 17016KT 10SM CLR M01/M12 A3017 RMK AO2 SLP275 T10111117


Station Type Date Time Source
KLIC Decoded METAR 2022/11/30 16:55 UTC NOAA

LIMON MUNICIPAL AIRPORT, CO, United States (KLIC) 39-16N 103-40W 1630M
Nov 30, 2022 - 11:55 AM EST / 2022.11.30 1655 UTC
Wind: from the S (170 degrees) at 18 MPH (16 KT):0
Visibility: 10 mile(s):0
Sky conditions: clear
Temperature: 30.0 F (-1.1 C)
Windchill: 17 F (-8 C):1
Dew Point: 10.9 F (-11.7 C)
Relative Humidity: 44%
Pressure (altimeter): 30.17 in. Hg (1021 hPa)
ob: KLIC 301655Z AUTO 17016KT 10SM CLR M01/M12 A3017 RMK AO2 SLP275 T10111117
cycle: 17

Station Type Date Time Source
KLIC TAF UTC NOAA

Error!

Example: see airport list